Map

Track Data

SID SEASON NUMBER BASIN SUBBASIN NAME ISO_TIME NATURE LAT LON WMO_WIND WMO_PRES WMO_AGENCY TRACK_TYPE DIST2LAND LANDFALL IFLAG USA_AGENCY USA_ATCF_ID USA_LAT USA_LON USA_RECORD USA_STATUS USA_WIND USA_PRES USA_SSHS USA_R34_NE USA_R34_SE USA_R34_SW USA_R34_NW USA_R50_NE USA_R50_SE USA_R50_SW USA_R50_NW USA_R64_NE USA_R64_SE USA_R64_SW USA_R64_NW USA_POCI USA_ROCI USA_RMW USA_EYE TOKYO_LAT TOKYO_LON TOKYO_GRADE TOKYO_WIND TOKYO_PRES TOKYO_R50_DIR TOKYO_R50_LONG TOKYO_R50_SHORT TOKYO_R30_DIR TOKYO_R30_LONG TOKYO_R30_SHORT TOKYO_LAND CMA_LAT CMA_LON CMA_CAT CMA_WIND CMA_PRES HKO_LAT HKO_LON HKO_CAT HKO_WIND HKO_PRES NEWDELHI_LAT NEWDELHI_LON NEWDELHI_GRADE NEWDELHI_WIND NEWDELHI_PRES NEWDELHI_CI NEWDELHI_DP NEWDELHI_POCI REUNION_LAT REUNION_LON REUNION_TYPE REUNION_WIND REUNION_PRES REUNION_TNUM REUNION_CI REUNION_RMW REUNION_R34_NE REUNION_R34_SE REUNION_R34_SW REUNION_R34_NW REUNION_R50_NE REUNION_R50_SE REUNION_R50_SW REUNION_R50_NW REUNION_R64_NE REUNION_R64_SE REUNION_R64_SW REUNION_R64_NW BOM_LAT BOM_LON BOM_TYPE BOM_WIND BOM_PRES BOM_TNUM BOM_CI BOM_RMW BOM_R34_NE BOM_R34_SE BOM_R34_SW BOM_R34_NW BOM_R50_NE BOM_R50_SE BOM_R50_SW BOM_R50_NW BOM_R64_NE BOM_R64_SE BOM_R64_SW BOM_R64_NW BOM_ROCI BOM_POCI BOM_EYE BOM_POS_METHOD BOM_PRES_METHOD NADI_LAT NADI_LON NADI_CAT NADI_WIND NADI_PRES WELLINGTON_LAT WELLINGTON_LON WELLINGTON_WIND WELLINGTON_PRES DS824_LAT DS824_LON DS824_STAGE DS824_WIND DS824_PRES TD9636_LAT TD9636_LON TD9636_STAGE TD9636_WIND TD9636_PRES TD9635_LAT TD9635_LON TD9635_WIND TD9635_PRES TD9635_ROCI NEUMANN_LAT NEUMANN_LON NEUMANN_CLASS NEUMANN_WIND NEUMANN_PRES MLC_LAT MLC_LON MLC_CLASS MLC_WIND MLC_PRES USA_GUST BOM_GUST BOM_GUST_PER REUNION_GUST REUNION_GUST_PER USA_SEAHGT USA_SEARAD_NE USA_SEARAD_SE USA_SEARAD_SW USA_SEARAD_NW STORM_SPEED STORM_DIR
2021235N19253 2021 64 EP MM MARTY 2021-08-22 18:00:00 DS 19.3000 -107.500 PROVISIONAL 223 223 O_____________ nhc_working_bt EP132021 19.3000 -107.500 LO 30 1004 -3 1006 100 40 40 14 282
2021235N19253 2021 64 EP MM MARTY 2021-08-22 21:00:00 DS 19.4431 -108.202 PROVISIONAL 284 280 P_____________ EP132021 19.4431 -108.202 LO 30 1004 -3 1006 100 45 14 283
2021235N19253 2021 64 EP MM MARTY 2021-08-23 00:00:00 DS 19.6000 -108.900 PROVISIONAL 346 346 O_____________ nhc_working_bt EP132021 19.6000 -108.900 LO 30 1004 -3 1006 100 50 40 14 285
2021235N19253 2021 64 EP MM MARTY 2021-08-23 03:00:00 DS 19.7846 -109.593 PROVISIONAL 347 324 P_____________ EP132021 19.7846 -109.593 LO 32 1003 -3 1007 150 45 14 286
2021235N19253 2021 64 EP MM MARTY 2021-08-23 06:00:00 TS 19.9800 -110.300 PROVISIONAL 325 313 O_____________ nhc_working_bt EP132021 20.0000 -110.300 TS 35 1003 0 40 60 60 1008 200 40 45 14 288
2021235N19253 2021 64 EP MM MARTY 2021-08-23 09:00:00 TS 20.2257 -111.013 PROVISIONAL 319 312 P_____________ EP132021 20.2647 -111.035 TS 35 1003 0 40 60 60 1008 200 40 14 289
2021235N19253 2021 64 EP MM MARTY 2021-08-23 12:00:00 TS 20.4571 -111.757 PROVISIONAL 326 326 O_____________ nhc_working_bt EP132021 20.5000 -111.800 TS 35 1003 0 40 60 60 1008 200 40 45 15 286
2021235N19253 2021 64 EP MM MARTY 2021-08-23 15:00:00 TS 20.6411 -112.560 PROVISIONAL 371 371 P_____________ EP132021 20.6372 -112.593 TS 37 1002 0 35 50 55 1008 200 40 16 281
2021235N19253 2021 64 EP MM MARTY 2021-08-23 18:00:00 TS 20.7500 -113.400 PROVISIONAL 422 422 O_____________ nhc_working_bt EP132021 20.7000 -113.400 TS 40 1002 0 30 20 40 50 1008 200 40 50 16 274
2021235N19253 2021 64 EP MM MARTY 2021-08-23 21:00:00 TS 20.7549 -114.248 PROVISIONAL 481 481 P_____________ EP132021 20.7223 -114.215 TS 40 1002 0 30 20 40 50 1008 190 35 15 268
2021235N19253 2021 64 EP MM MARTY 2021-08-24 00:00:00 TS 20.7000 -115.056 PROVISIONAL 542 542 O_____________ nhc_working_bt EP132021 20.7000 -115.000 TS 40 1002 0 30 20 40 50 1008 180 30 50 14 266
2021235N19253 2021 64 EP MM MARTY 2021-08-24 03:00:00 TS 20.6529 -115.740 PROVISIONAL 579 579 P_____________ EP132021 20.6498 -115.738 TS 37 1002 0 30 20 40 50 1008 180 30 12 266
2021235N19253 2021 64 EP MM MARTY 2021-08-24 06:00:00 TS 20.6068 -116.381 PROVISIONAL 635 635 O_____________ nhc_working_bt EP132021 20.6000 -116.400 TS 35 1003 0 30 20 40 50 1008 180 30 45 12 45 30 30 12 267
2021235N19253 2021 64 EP MM MARTY 2021-08-24 09:00:00 TS 20.5998 -117.026 PROVISIONAL 680 680 P_____________ EP132021 20.5996 -116.972 TS 32 1004 -1 1009 180 30 11 270
2021235N19253 2021 64 EP MM MARTY 2021-08-24 12:00:00 TS 20.6000 -117.600 PROVISIONAL 725 725 O_____________ nhc_working_bt EP132021 20.6000 -117.500 TD 30 1006 -1 1010 180 30 40 10 267
2021235N19253 2021 64 EP MM MARTY 2021-08-24 15:00:00 TS 20.5497 -118.115 PROVISIONAL 772 772 P_____________ EP132021 20.5499 -118.058 TD 30 1006 -1 1010 180 32 9 264
2021235N19253 2021 64 EP MM MARTY 2021-08-24 18:00:00 TS 20.5000 -118.600 PROVISIONAL 813 813 O_____________ nhc_working_bt EP132021 20.5000 -118.600 TD 30 1006 -1 1010 180 35 40 9 266
2021235N19253 2021 64 EP MM MARTY 2021-08-24 21:00:00 TS 20.4909 -119.103 PROVISIONAL 855 855 P_____________ EP132021 20.4923 -119.115 TD 30 1006 -1 1010 180 35 9 270
2021235N19253 2021 64 EP MM MARTY 2021-08-25 00:00:00 DS 20.5000 -119.600 PROVISIONAL 898 898 O_____________ nhc_working_bt EP132021 20.5000 -119.600 LO 30 1006 -3 1010 180 35 9 270
2021235N19253 2021 64 EP MM MARTY 2021-08-25 03:00:00 DS 20.4923 -120.058 PROVISIONAL 941 941 P_____________ EP132021 20.4923 -120.058 LO 30 1006 -3 1010 180 35 8 270
2021235N19253 2021 64 EP MM MARTY 2021-08-25 06:00:00 DS 20.5000 -120.500 PROVISIONAL 971 971 O_____________ nhc_working_bt EP132021 20.5000 -120.500 LO 30 1006 -3 1010 180 35 8 274
2021235N19253 2021 64 EP MM MARTY 2021-08-25 09:00:00 DS 20.5498 -120.942 PROVISIONAL 998 996 P_____________ EP132021 20.5498 -120.942 LO 27 1006 -3 1010 180 35 8 277
2021235N19253 2021 64 EP MM MARTY 2021-08-25 12:00:00 DS 20.6000 -121.400 PROVISIONAL 1024 1024 O_____________ nhc_working_bt EP132021 20.6000 -121.400 LO 25 1006 -3 1010 180 35 9 274
2021235N19253 2021 64 EP MM MARTY 2021-08-25 15:00:00 DS 20.6128 -121.890 PROVISIONAL 1057 1057 P_____________ EP132021 20.6128 -121.890 LO 25 1006 -3 1010 180 35 9 270
2021235N19253 2021 64 EP MM MARTY 2021-08-25 18:00:00 DS 20.6000 -122.400 PROVISIONAL 1091 O_____________ nhc_working_bt EP132021 20.6000 -122.400 LO 25 1006 -3 1010 180 35 10 268

About IBTrACS Database

This database is a web-friendly format of International Best Track Archive for Climate Stewardship (IBTrACS), a global best track data archive curated by NOAA dating back to 1842.

Updated: 2022-09-23